Time;durP1;ratioP1;P1;durP2;ratioP2;P2;SDS_P1;SDS_P2;PMS_P1;PMS_P2;Temp;Humidity;BMP_temperature;BMP_pressure;BME280_temperature;BME280_humidity;BME280_pressure;Samples;Min_cycle;Max_cycle;Signal;HPM_P1;HPM_P2
2023/07/29 00:01:20;;;;;;;6.13;5.63;;;19.40;54.00;;;;;;5012982;28;20208;-57
2023/07/29 00:03:46;;;;;;;5.20;4.80;;;19.40;54.00;;;;;;5011568;28;20189;-58
2023/07/29 00:06:12;;;;;;;5.07;4.87;;;19.40;54.30;;;;;;5011479;28;20606;-57
2023/07/29 00:08:37;;;;;;;4.97;4.77;;;19.40;54.30;;;;;;5011313;28;20315;-57
2023/07/29 00:11:03;;;;;;;5.23;5.03;;;19.40;54.20;;;;;;5011526;28;20279;-58
2023/07/29 00:13:29;;;;;;;4.90;4.70;;;19.40;54.50;;;;;;5011098;28;20185;-58
2023/07/29 00:15:58;;;;;;;5.30;5.10;;;19.40;54.50;;;;;;5011209;28;20188;-57
2023/07/29 00:18:23;;;;;;;5.50;5.20;;;19.40;54.80;;;;;;5011284;28;20287;-57
2023/07/29 00:20:50;;;;;;;5.37;5.07;;;19.40;55.10;;;;;;5011105;28;21005;-57
2023/07/29 00:23:19;;;;;;;5.60;5.40;;;19.40;55.10;;;;;;5010990;28;20268;-57
2023/07/29 00:25:44;;;;;;;5.30;5.00;;;19.40;54.80;;;;;;5010859;28;20510;-58
2023/07/29 00:28:11;;;;;;;5.17;4.97;;;19.40;54.80;;;;;;5011132;28;20459;-57
2023/07/29 00:30:37;;;;;;;5.60;5.30;;;19.40;54.70;;;;;;5011043;28;20424;-57
2023/07/29 00:33:02;;;;;;;5.30;5.00;;;19.40;54.40;;;;;;5011223;28;20780;-57
2023/07/29 00:35:28;;;;;;;6.07;5.57;;;19.40;54.30;;;;;;5011170;28;20189;-57
2023/07/29 00:37:53;;;;;;;5.40;5.20;;;19.40;54.60;;;;;;5010244;28;20614;-58
2023/07/29 00:40:21;;;;;;;5.63;5.30;;;19.40;54.70;;;;;;5011111;28;20608;-57
2023/07/29 00:42:47;;;;;;;6.87;5.50;;;19.40;54.80;;;;;;5010595;28;20185;-57
2023/07/29 00:45:13;;;;;;;6.03;5.73;;;19.40;54.70;;;;;;5010962;28;20420;-57
2023/07/29 00:47:40;;;;;;;5.40;5.13;;;19.40;54.80;;;;;;5011006;28;20177;-57
2023/07/29 00:50:07;;;;;;;5.30;5.10;;;19.40;54.60;;;;;;5010790;28;20431;-58
2023/07/29 00:52:32;;;;;;;5.20;5.00;;;19.40;54.80;;;;;;5010941;28;20424;-57
2023/07/29 00:54:58;;;;;;;5.40;5.20;;;19.40;54.70;;;;;;5010616;28;20519;-57
2023/07/29 00:57:25;;;;;;;5.40;5.20;;;19.40;54.50;;;;;;5010820;28;20205;-57
2023/07/29 00:59:51;;;;;;;5.50;5.20;;;19.40;54.80;;;;;;5010585;28;20284;-58
2023/07/29 01:02:17;;;;;;;5.43;5.20;;;19.40;54.70;;;;;;5010910;28;20478;-57
2023/07/29 01:04:43;;;;;;;5.70;5.40;;;19.40;55.70;;;;;;5010728;28;20556;-57
2023/07/29 01:07:18;;;;;;;5.23;5.03;;;19.40;55.30;;;;;;5010819;28;20408;-57
2023/07/29 01:10:14;;;;;;;5.50;5.30;;;19.50;55.90;;;;;;5010426;28;20218;-57
2023/07/29 01:12:51;;;;;;;5.10;4.90;;;19.40;55.70;;;;;;4981373;28;20504;-57
2023/07/29 01:15:20;;;;;;;5.57;5.27;;;19.40;55.70;;;;;;5010748;28;20420;-57
2023/07/29 01:18:08;;;;;;;5.10;4.90;;;19.40;55.70;;;;;;5026905;28;20845;-57
2023/07/29 01:20:37;;;;;;;5.77;5.20;;;19.40;56.00;;;;;;5026110;28;20491;-57
2023/07/29 01:23:02;;;;;;;5.60;5.30;;;19.40;56.10;;;;;;5009995;28;20475;-57
2023/07/29 01:25:28;;;;;;;5.40;5.20;;;19.40;56.00;;;;;;5010504;28;20826;-57
2023/07/29 01:27:55;;;;;;;4.80;4.70;;;19.40;55.80;;;;;;5011796;28;20185;-58
2023/07/29 01:30:26;;;;;;;5.13;4.93;;;19.50;55.90;;;;;;5010536;28;20185;-58
2023/07/29 01:33:04;;;;;;;5.30;4.97;;;19.50;55.50;;;;;;5010721;28;20428;-58
2023/07/29 01:35:44;;;;;;;5.00;4.70;;;19.40;55.60;;;;;;5010564;28;20477;-58
2023/07/29 01:38:18;;;;;;;5.77;5.47;;;19.40;55.70;;;;;;5010408;28;20444;-58
2023/07/29 01:40:44;;;;;;;5.47;5.07;;;19.40;55.50;;;;;;5010396;28;20468;-58
2023/07/29 01:43:11;;;;;;;5.20;5.00;;;19.40;55.40;;;;;;5010364;28;20412;-58
2023/07/29 01:45:38;;;;;;;5.77;5.03;;;19.40;55.40;;;;;;5011632;28;20547;-58
2023/07/29 01:48:07;;;;;;;5.70;5.40;;;19.40;55.50;;;;;;5011382;28;20976;-58
2023/07/29 01:50:34;;;;;;;5.33;5.13;;;19.50;56.00;;;;;;5013751;28;20424;-58
2023/07/29 01:52:59;;;;;;;5.00;4.90;;;19.50;56.10;;;;;;5014145;28;20424;-58
2023/07/29 01:55:25;;;;;;;5.93;5.63;;;19.50;56.10;;;;;;5013949;28;20428;-57
2023/07/29 01:57:53;;;;;;;5.57;5.37;;;19.50;55.90;;;;;;5014892;28;20193;-58
2023/07/29 02:00:19;;;;;;;5.50;5.20;;;19.50;56.40;;;;;;5013827;28;20212;-58
2023/07/29 02:02:45;;;;;;;5.50;5.30;;;19.50;56.20;;;;;;5013686;28;20417;-58
2023/07/29 02:05:11;;;;;;;5.60;5.40;;;19.50;56.10;;;;;;5013827;28;20764;-58
2023/07/29 02:07:36;;;;;;;5.67;5.47;;;19.40;55.00;;;;;;5013775;28;20177;-58
2023/07/29 02:10:02;;;;;;;5.70;5.40;;;19.40;55.30;;;;;;5013550;28;20625;-58
2023/07/29 02:12:28;;;;;;;6.03;5.73;;;19.40;56.30;;;;;;5013021;28;20196;-58
2023/07/29 02:14:53;;;;;;;5.80;5.50;;;19.40;55.40;;;;;;5012706;28;20555;-58
2023/07/29 02:17:19;;;;;;;5.53;5.23;;;19.40;55.50;;;;;;5012632;28;20177;-58
2023/07/29 02:19:45;;;;;;;5.70;5.40;;;19.40;55.10;;;;;;5012967;28;20241;-58
2023/07/29 02:22:14;;;;;;;5.60;5.40;;;19.40;54.90;;;;;;5013500;28;20174;-58
2023/07/29 02:24:39;;;;;;;5.93;5.73;;;19.40;54.80;;;;;;5013044;28;20177;-58
2023/07/29 02:27:05;;;;;;;6.07;5.77;;;19.40;54.80;;;;;;5012949;28;20416;-58
2023/07/29 02:29:32;;;;;;;5.57;5.33;;;19.50;54.90;;;;;;5013124;28;20186;-58
2023/07/29 02:31:59;;;;;;;5.30;4.97;;;19.40;54.80;;;;;;5013403;28;20193;-58
2023/07/29 02:34:24;;;;;;;5.53;5.33;;;19.40;54.50;;;;;;5013227;28;20470;-58
2023/07/29 02:36:50;;;;;;;5.87;5.57;;;19.40;54.60;;;;;;5013259;28;20507;-57
2023/07/29 02:39:16;;;;;;;5.60;5.40;;;19.40;54.50;;;;;;5012958;28;20292;-57
2023/07/29 02:41:41;;;;;;;5.47;5.27;;;19.40;54.30;;;;;;5013105;28;20181;-58
2023/07/29 02:44:07;;;;;;;6.20;5.83;;;19.40;54.20;;;;;;5013239;28;20173;-58
2023/07/29 02:46:33;;;;;;;6.03;5.73;;;19.40;54.50;;;;;;5013060;28;20535;-58
2023/07/29 02:48:59;;;;;;;6.07;5.87;;;19.40;54.50;;;;;;5012918;28;20548;-58
2023/07/29 02:51:24;;;;;;;6.63;6.00;;;19.40;54.00;;;;;;5012757;28;20177;-58
2023/07/29 02:53:50;;;;;;;5.70;5.40;;;19.40;53.60;;;;;;5012846;28;20432;-58
2023/07/29 02:56:16;;;;;;;5.90;5.70;;;19.40;53.60;;;;;;5012585;28;20228;-58
2023/07/29 02:58:41;;;;;;;5.50;5.30;;;19.40;53.40;;;;;;5012276;28;20651;-58
2023/07/29 03:01:07;;;;;;;5.43;5.20;;;19.40;52.90;;;;;;5011757;28;20213;-58
2023/07/29 03:03:33;;;;;;;5.50;5.30;;;19.40;53.20;;;;;;5012576;28;20174;-58
2023/07/29 03:06:04;;;;;;;5.70;5.40;;;19.30;52.90;;;;;;5012394;28;20208;-58
2023/07/29 03:08:29;;;;;;;5.67;5.37;;;19.40;53.90;;;;;;5012419;28;20510;-58
2023/07/29 03:10:56;;;;;;;5.53;5.30;;;19.40;54.20;;;;;;5012322;28;20507;-58
2023/07/29 03:13:21;;;;;;;5.03;4.83;;;19.40;54.50;;;;;;5012537;28;20280;-57
2023/07/29 03:15:47;;;;;;;5.40;5.20;;;19.40;54.50;;;;;;5012003;28;20945;-58
2023/07/29 03:18:13;;;;;;;5.57;5.30;;;19.40;54.60;;;;;;5012054;28;20192;-58
2023/07/29 03:20:38;;;;;;;5.80;5.50;;;19.40;54.70;;;;;;5012175;28;20213;-58
2023/07/29 03:23:04;;;;;;;5.77;5.57;;;19.40;54.60;;;;;;5012414;28;20689;-58
2023/07/29 03:25:29;;;;;;;6.27;5.90;;;19.40;54.50;;;;;;5012343;28;20173;-58
2023/07/29 03:27:55;;;;;;;6.27;5.90;;;19.40;52.60;;;;;;5012928;28;20173;-58
2023/07/29 03:30:22;;;;;;;5.77;5.47;;;19.30;52.90;;;;;;5012252;28;20231;-58
2023/07/29 03:32:48;;;;;;;5.90;5.60;;;19.30;53.60;;;;;;5012193;28;20553;-58
2023/07/29 03:35:14;;;;;;;6.37;6.07;;;19.40;54.00;;;;;;5012168;28;20458;-58
2023/07/29 03:37:40;;;;;;;5.70;5.30;;;19.30;54.60;;;;;;5012105;28;20424;-58
2023/07/29 03:40:06;;;;;;;5.70;5.50;;;19.40;54.20;;;;;;5011848;28;20209;-58
2023/07/29 03:42:32;;;;;;;6.00;5.80;;;19.40;54.10;;;;;;5011905;28;20319;-58
2023/07/29 03:44:58;;;;;;;6.40;6.10;;;19.30;51.60;;;;;;5012068;28;20498;-59
2023/07/29 03:47:24;;;;;;;6.03;5.73;;;19.10;51.30;;;;;;5011868;28;20252;-58
2023/07/29 03:49:49;;;;;;;6.27;5.97;;;19.10;51.50;;;;;;5011656;28;20656;-58
2023/07/29 03:52:15;;;;;;;6.83;6.50;;;19.10;51.50;;;;;;5011693;28;20185;-58
2023/07/29 03:54:41;;;;;;;6.27;5.97;;;19.00;51.90;;;;;;5011314;28;20185;-58
2023/07/29 03:57:06;;;;;;;6.07;5.67;;;19.00;52.00;;;;;;5010988;28;20251;-58
2023/07/29 03:59:32;;;;;;;6.00;5.80;;;19.00;52.20;;;;;;5010828;28;20642;-59
2023/07/29 04:01:58;;;;;;;6.63;6.17;;;18.90;52.70;;;;;;5011685;28;20631;-58
2023/07/29 04:04:24;;;;;;;6.63;6.20;;;18.90;53.40;;;;;;5011425;28;20420;-58
2023/07/29 04:06:49;;;;;;;5.50;5.20;;;19.00;54.60;;;;;;5012875;28;20798;-58
2023/07/29 04:09:15;;;;;;;5.97;5.67;;;18.90;55.90;;;;;;5011026;28;20183;-58
2023/07/29 04:11:41;;;;;;;5.23;4.93;;;18.90;56.30;;;;;;5010520;28;20227;-65
2023/07/29 04:14:07;;;;;;;5.23;4.93;;;18.90;56.00;;;;;;5010754;28;20216;-57
2023/07/29 04:16:32;;;;;;;5.47;5.17;;;18.90;57.10;;;;;;5011080;28;20189;-57
2023/07/29 04:18:58;;;;;;;5.77;5.47;;;19.00;57.70;;;;;;5010942;28;20207;-57
2023/07/29 04:21:23;;;;;;;7.80;4.80;;;19.00;58.00;;;;;;5010695;28;20260;-56
2023/07/29 04:23:49;;;;;;;5.20;4.80;;;19.10;57.30;;;;;;5010704;28;20192;-56
2023/07/29 04:26:15;;;;;;;5.63;5.10;;;19.10;57.60;;;;;;5010402;28;20276;-56
2023/07/29 04:28:40;;;;;;;5.17;4.97;;;19.10;57.70;;;;;;5011048;28;20223;-57
2023/07/29 04:31:06;;;;;;;5.07;4.87;;;19.20;57.80;;;;;;5010654;28;20275;-56
2023/07/29 04:33:31;;;;;;;5.23;4.93;;;19.20;57.50;;;;;;5011965;28;20644;-57
2023/07/29 04:35:57;;;;;;;4.60;4.40;;;19.20;57.20;;;;;;5010527;28;20768;-57
2023/07/29 04:38:27;;;;;;;5.50;5.10;;;19.20;57.10;;;;;;5011047;28;20272;-57
2023/07/29 04:40:53;;;;;;;5.50;5.20;;;19.30;57.20;;;;;;5011005;28;20355;-56
2023/07/29 04:43:18;;;;;;;6.63;6.03;;;19.30;58.10;;;;;;5010290;28;20503;-56
2023/07/29 04:45:45;;;;;;;5.80;5.40;;;19.30;58.00;;;;;;5027429;28;20271;-56
2023/07/29 04:48:11;;;;;;;5.93;5.53;;;19.30;58.80;;;;;;5010386;28;20188;-57
2023/07/29 04:50:36;;;;;;;5.80;5.40;;;19.30;58.70;;;;;;5010493;28;20424;-57
2023/07/29 04:53:02;;;;;;;5.60;5.20;;;19.30;59.00;;;;;;5010996;28;20544;-57
2023/07/29 04:55:27;;;;;;;6.90;6.30;;;19.40;59.20;;;;;;5010071;28;20261;-56
2023/07/29 04:57:53;;;;;;;6.27;5.77;;;19.40;59.70;;;;;;5010564;28;20196;-56
2023/07/29 05:00:19;;;;;;;6.00;5.70;;;19.40;59.70;;;;;;5011987;28;20208;-57
2023/07/29 05:02:44;;;;;;;7.03;5.83;;;19.40;59.70;;;;;;5010881;28;20265;-57
2023/07/29 05:05:10;;;;;;;6.07;5.67;;;19.40;59.70;;;;;;5010936;28;20181;-56
2023/07/29 05:07:36;;;;;;;5.80;5.50;;;19.30;59.60;;;;;;5010745;28;20243;-56
2023/07/29 05:10:02;;;;;;;6.03;5.53;;;19.30;60.20;;;;;;5010856;28;20181;-57
2023/07/29 05:12:29;;;;;;;6.47;5.87;;;19.30;60.30;;;;;;5009721;28;20182;-56
2023/07/29 05:14:54;;;;;;;6.10;5.80;;;19.30;60.30;;;;;;5009993;28;20428;-56
2023/07/29 05:17:21;;;;;;;6.00;5.60;;;19.30;60.50;;;;;;5010503;28;20841;-57
2023/07/29 05:19:46;;;;;;;5.60;5.40;;;19.30;60.60;;;;;;5010430;28;20220;-57
2023/07/29 05:22:12;;;;;;;6.70;6.20;;;19.30;59.60;;;;;;5010456;28;20429;-57
2023/07/29 05:24:38;;;;;;;7.13;6.80;;;19.10;59.00;;;;;;5013400;28;20181;-56
2023/07/29 05:27:03;;;;;;;6.57;6.27;;;19.00;59.30;;;;;;4981653;28;20188;-55
2023/07/29 05:29:29;;;;;;;6.77;6.37;;;18.90;59.60;;;;;;4997949;28;20208;-58
2023/07/29 05:31:55;;;;;;;7.50;7.00;;;19.00;60.90;;;;;;5014308;28;20192;-55
2023/07/29 05:34:20;;;;;;;6.27;5.97;;;18.90;60.50;;;;;;4998101;28;20322;-55
2023/07/29 05:36:46;;;;;;;5.90;5.57;;;18.90;60.90;;;;;;4997790;28;20177;-56
2023/07/29 05:39:12;;;;;;;6.13;5.80;;;18.90;61.60;;;;;;4993953;28;20197;-56
2023/07/29 05:41:37;;;;;;;6.57;6.27;;;18.90;60.80;;;;;;4992637;28;20185;-56
2023/07/29 05:44:03;;;;;;;6.00;5.70;;;18.90;60.70;;;;;;5009683;28;20181;-56
2023/07/29 05:46:29;;;;;;;6.73;6.30;;;18.90;60.60;;;;;;5013272;28;20548;-56
2023/07/29 05:48:54;;;;;;;6.17;5.77;;;18.80;60.70;;;;;;5013153;28;20181;-57
2023/07/29 05:51:20;;;;;;;5.83;5.53;;;18.90;60.90;;;;;;5012982;28;20185;-57
2023/07/29 05:53:46;;;;;;;5.83;5.53;;;18.90;61.10;;;;;;5013786;28;20235;-56
2023/07/29 05:56:11;;;;;;;6.00;5.60;;;18.90;61.30;;;;;;5013917;28;20193;-57
2023/07/29 05:58:37;;;;;;;5.40;5.10;;;18.90;61.70;;;;;;5013441;28;20538;-56
2023/07/29 06:01:03;;;;;;;6.10;5.10;;;18.90;61.20;;;;;;5013853;28;20583;-56
2023/07/29 06:03:28;;;;;;;5.73;5.33;;;18.90;61.70;;;;;;5013814;28;20177;-56
2023/07/29 06:05:54;;;;;;;4.83;4.53;;;19.00;62.10;;;;;;5013346;28;20177;-57
2023/07/29 06:08:20;;;;;;;6.70;5.07;;;19.00;62.40;;;;;;5012852;28;20186;-56
2023/07/29 06:10:45;;;;;;;5.60;5.23;;;19.00;63.10;;;;;;5013261;28;20511;-56
2023/07/29 06:13:11;;;;;;;4.97;4.67;;;19.10;62.80;;;;;;5013631;28;20193;-56
2023/07/29 06:15:37;;;;;;;5.03;4.73;;;19.20;62.40;;;;;;5012595;28;20193;-56
2023/07/29 06:18:02;;;;;;;5.30;5.00;;;19.20;62.90;;;;;;5013039;28;20658;-56
2023/07/29 06:20:29;;;;;;;8.40;7.60;;;19.20;61.60;;;;;;5012185;28;20209;-55
2023/07/29 06:22:54;;;;;;;4.40;4.10;;;19.30;62.20;;;;;;5007817;28;20226;-56
2023/07/29 06:25:20;;;;;;;4.20;4.00;;;19.30;60.80;;;;;;5012833;28;20522;-56
2023/07/29 06:27:45;;;;;;;4.87;4.47;;;19.40;60.70;;;;;;5012731;28;20646;-56
2023/07/29 06:30:11;;;;;;;4.60;4.30;;;19.40;61.20;;;;;;5012653;28;20184;-55
2023/07/29 06:32:37;;;;;;;4.77;4.50;;;19.50;61.20;;;;;;5012720;28;20539;-56
2023/07/29 06:35:02;;;;;;;4.60;4.20;;;19.60;60.80;;;;;;5011340;28;20213;-56
2023/07/29 06:37:28;;;;;;;5.00;4.70;;;19.60;59.80;;;;;;5011200;28;20186;-57
2023/07/29 06:39:54;;;;;;;7.73;3.80;;;19.60;59.90;;;;;;5013538;28;20300;-56
2023/07/29 06:42:19;;;;;;;4.27;4.00;;;19.70;59.30;;;;;;4996164;28;20205;-58
2023/07/29 06:44:45;;;;;;;3.70;3.50;;;19.70;59.20;;;;;;5012361;28;20547;-58
2023/07/29 06:47:12;;;;;;;4.30;4.10;;;19.80;59.60;;;;;;5012322;28;20541;-58
2023/07/29 06:49:37;;;;;;;4.17;4.00;;;19.80;59.10;;;;;;5011879;28;20428;-58
2023/07/29 06:52:03;;;;;;;4.00;3.80;;;19.90;58.10;;;;;;5011886;28;20416;-58
2023/07/29 06:54:29;;;;;;;4.03;3.83;;;19.90;56.70;;;;;;5000779;28;20639;-58
2023/07/29 06:56:55;;;;;;;4.77;4.30;;;20.00;55.40;;;;;;4981069;28;20437;-59
2023/07/29 06:59:20;;;;;;;3.90;3.70;;;20.00;55.40;;;;;;4976033;28;20244;-59
2023/07/29 07:01:46;;;;;;;4.10;3.93;;;20.10;55.80;;;;;;4991828;28;20169;-58
2023/07/29 07:04:12;;;;;;;4.63;4.37;;;20.00;54.90;;;;;;4995654;28;20178;-58
2023/07/29 07:06:37;;;;;;;5.13;4.83;;;20.00;54.90;;;;;;4995160;28;20201;-57
2023/07/29 07:09:03;;;;;;;4.73;4.53;;;20.00;56.00;;;;;;4995130;28;20177;-58
2023/07/29 07:11:29;;;;;;;4.93;4.63;;;19.90;56.60;;;;;;4995179;28;20688;-58
2023/07/29 07:13:54;;;;;;;4.50;4.30;;;19.90;56.70;;;;;;4995408;28;20177;-58
2023/07/29 07:16:20;;;;;;;4.43;4.23;;;19.80;57.10;;;;;;4995333;28;20197;-59
2023/07/29 07:18:46;;;;;;;4.83;4.63;;;19.70;58.10;;;;;;4995140;28;20231;-59
2023/07/29 07:21:11;;;;;;;4.27;3.97;;;19.70;58.30;;;;;;4995260;28;20201;-58
2023/07/29 07:23:39;;;;;;;4.93;4.63;;;19.70;59.40;;;;;;4995331;28;20547;-58
2023/07/29 07:26:04;;;;;;;3.90;3.70;;;19.70;60.30;;;;;;4994926;28;20329;-58
2023/07/29 07:28:30;;;;;;;4.70;4.30;;;19.70;59.90;;;;;;4994564;28;20419;-58
2023/07/29 07:30:56;;;;;;;4.47;4.27;;;19.70;60.10;;;;;;4995370;28;20288;-58
2023/07/29 07:33:22;;;;;;;6.60;4.37;;;19.70;59.90;;;;;;4994879;28;20177;-57
2023/07/29 07:35:48;;;;;;;4.50;4.30;;;19.70;61.30;;;;;;4999453;28;20913;-58
2023/07/29 07:38:13;;;;;;;4.33;4.13;;;19.60;59.60;;;;;;5010103;28;20862;-58
2023/07/29 07:40:40;;;;;;;4.60;4.40;;;19.60;59.90;;;;;;5010634;28;20201;-59
2023/07/29 07:43:05;;;;;;;4.37;4.17;;;19.60;59.20;;;;;;5010830;28;20280;-58
2023/07/29 07:45:32;;;;;;;3.93;3.70;;;19.60;59.90;;;;;;5010212;28;20507;-59
2023/07/29 07:47:58;;;;;;;4.30;4.10;;;19.60;59.90;;;;;;5010368;28;20189;-59
2023/07/29 07:50:24;;;;;;;4.80;4.40;;;19.60;59.20;;;;;;5010667;28;20424;-58
2023/07/29 07:52:50;;;;;;;4.47;4.27;;;19.60;59.70;;;;;;4994291;28;20436;-57
2023/07/29 07:55:15;;;;;;;4.80;4.60;;;19.60;59.50;;;;;;5010383;28;20530;-57
2023/07/29 07:57:41;;;;;;;4.13;3.93;;;19.70;59.90;;;;;;4994294;28;20666;-57
2023/07/29 08:00:07;;;;;;;4.40;4.20;;;19.70;59.80;;;;;;5011294;28;20204;-58
2023/07/29 08:02:33;;;;;;;5.37;4.97;;;19.70;60.00;;;;;;5011512;28;20204;-57
2023/07/29 08:04:59;;;;;;;4.80;4.60;;;19.70;59.10;;;;;;4994886;28;20455;-57
2023/07/29 08:07:24;;;;;;;4.97;4.70;;;19.70;58.90;;;;;;5012471;28;20174;-57
2023/07/29 08:09:50;;;;;;;5.43;4.93;;;19.80;59.70;;;;;;5011219;28;20189;-52
2023/07/29 08:12:16;;;;;;;4.70;4.50;;;19.90;61.20;;;;;;5011455;28;20208;-55
2023/07/29 08:14:42;;;;;;;4.90;4.70;;;19.90;60.10;;;;;;5011485;28;20279;-55
2023/07/29 08:17:07;;;;;;;5.23;4.83;;;19.90;60.10;;;;;;5002631;28;20843;-56
2023/07/29 08:19:35;;;;;;;4.70;4.40;;;19.90;59.70;;;;;;5003400;28;20304;-60
2023/07/29 08:22:02;;;;;;;4.63;4.20;;;20.00;59.60;;;;;;4994493;28;20184;-58
2023/07/29 08:24:28;;;;;;;4.73;4.53;;;20.10;60.30;;;;;;4991358;28;20437;-59
2023/07/29 08:26:54;;;;;;;4.70;4.50;;;20.10;59.00;;;;;;4977371;28;20507;-59
2023/07/29 08:29:19;;;;;;;4.60;4.40;;;20.10;57.90;;;;;;5009156;28;20235;-59
2023/07/29 08:31:45;;;;;;;4.50;4.27;;;20.20;57.80;;;;;;5008455;28;20246;-59
2023/07/29 08:34:10;;;;;;;4.87;4.63;;;20.20;57.50;;;;;;5007671;28;20208;-59
2023/07/29 08:36:36;;;;;;;4.80;4.53;;;20.20;56.30;;;;;;5007828;28;20276;-59
2023/07/29 08:39:02;;;;;;;5.10;4.80;;;20.30;55.80;;;;;;4994895;28;20177;-59
2023/07/29 08:41:34;;;;;;;5.40;5.10;;;20.30;56.70;;;;;;4985739;28;20178;-58
2023/07/29 08:44:11;;;;;;;4.83;4.60;;;20.30;55.60;;;;;;5008760;28;20436;-58
2023/07/29 08:46:38;;;;;;;4.70;4.50;;;20.40;55.40;;;;;;4986397;28;20771;-59
2023/07/29 08:49:04;;;;;;;4.53;4.27;;;20.50;55.90;;;;;;4987022;28;20412;-58
2023/07/29 08:51:31;;;;;;;4.50;4.30;;;20.50;55.10;;;;;;4985454;28;20501;-59
2023/07/29 08:53:59;;;;;;;5.60;5.20;;;20.60;54.70;;;;;;5004301;28;21047;-59
2023/07/29 08:56:25;;;;;;;4.97;4.77;;;20.70;54.60;;;;;;4996797;28;20440;-59
2023/07/29 08:58:52;;;;;;;5.13;4.67;;;20.80;53.80;;;;;;4990453;28;20912;-58
2023/07/29 09:01:18;;;;;;;4.67;4.47;;;20.90;55.70;;;;;;4996308;28;20460;-55
2023/07/29 09:03:46;;;;;;;4.33;4.23;;;21.00;54.70;;;;;;5000423;28;20833;-57
2023/07/29 09:06:20;;;;;;;5.07;4.77;;;21.10;53.10;;;;;;5012195;28;20178;-57
2023/07/29 09:08:48;;;;;;;5.70;5.30;;;21.30;53.20;;;;;;4989104;28;20416;-58
2023/07/29 09:11:17;;;;;;;4.37;4.13;;;21.30;50.90;;;;;;4993023;28;20424;-58
2023/07/29 09:13:43;;;;;;;4.43;4.13;;;21.50;51.00;;;;;;4992561;28;20527;-58
2023/07/29 09:16:09;;;;;;;5.10;4.80;;;21.50;48.90;;;;;;4993949;28;20462;-58
2023/07/29 09:18:35;;;;;;;5.40;5.17;;;21.50;51.70;;;;;;5003389;28;20428;-58
2023/07/29 09:21:01;;;;;;;4.87;4.67;;;21.60;49.40;;;;;;5003971;28;20509;-60
2023/07/29 09:23:27;;;;;;;6.00;5.60;;;21.70;49.90;;;;;;5000294;28;20181;-60
2023/07/29 09:26:01;;;;;;;5.70;5.50;;;21.80;47.80;;;;;;4995405;28;20503;-58
2023/07/29 09:28:33;;;;;;;5.57;5.37;;;22.00;47.40;;;;;;5001888;28;20413;-58
2023/07/29 09:30:59;;;;;;;6.30;6.00;;;22.00;43.40;;;;;;5014555;28;20494;-59
2023/07/29 09:33:29;;;;;;;7.20;6.70;;;22.20;45.00;;;;;;4991125;28;20419;-61
2023/07/29 09:35:55;;;;;;;6.63;6.33;;;22.20;42.30;;;;;;5004904;28;20178;-58
2023/07/29 09:38:27;;;;;;;6.90;6.60;;;22.30;44.00;;;;;;5003074;28;20408;-57
